createdAt,value
2022-11-14T00:00:02.229Z,0
2022-11-14T00:15:02.673Z,0
2022-11-14T00:30:03.117Z,0
2022-11-14T00:45:02.541Z,0
2022-11-14T01:00:02.990Z,0
2022-11-14T01:15:02.483Z,0
2022-11-14T01:30:02.858Z,0
2022-11-14T01:45:02.515Z,0
2022-11-14T02:00:02.760Z,0
2022-11-14T02:15:03.188Z,0
2022-11-14T02:30:02.610Z,0
2022-11-14T02:45:03.042Z,0
2022-11-14T03:00:02.500Z,0
2022-11-14T03:15:02.931Z,0
2022-11-14T03:30:02.518Z,0
2022-11-14T03:45:02.798Z,0
2022-11-14T04:00:03.239Z,0
2022-11-14T04:15:02.703Z,0
2022-11-14T04:30:03.106Z,0
2022-11-14T04:45:02.660Z,0
2022-11-14T05:00:02.972Z,0
2022-11-14T05:15:02.541Z,0
2022-11-14T05:45:03.488Z,0
2022-11-14T06:00:02.736Z,0
2022-11-14T06:15:03.162Z,0
2022-11-14T06:30:02.606Z,0
2022-11-14T06:45:03.053Z,0
2022-11-14T07:00:02.565Z,1
2022-11-14T07:15:02.896Z,9
2022-11-14T07:30:02.551Z,17
2022-11-14T07:45:02.776Z,28
2022-11-14T08:00:03.230Z,38
2022-11-14T08:15:02.655Z,54
2022-11-14T08:30:03.086Z,68
2022-11-14T08:45:02.585Z,108
2022-11-14T09:00:02.956Z,74
2022-11-14T09:15:02.572Z,119
2022-11-14T09:30:02.832Z,185
2022-11-14T09:45:03.303Z,218
2022-11-14T10:00:02.705Z,229
2022-11-14T10:15:03.156Z,244
2022-11-14T10:30:02.612Z,255
2022-11-14T10:45:03.030Z,258
2022-11-14T11:00:02.591Z,253
2022-11-14T11:15:02.901Z,256
2022-11-14T11:30:02.330Z,251
2022-11-14T11:45:02.765Z,238
2022-11-14T12:00:03.201Z,243
2022-11-14T12:15:02.641Z,236
2022-11-14T12:30:03.104Z,218
2022-11-14T12:45:02.661Z,207
2022-11-14T13:00:02.971Z,190
2022-11-14T13:15:02.626Z,172
2022-11-14T13:30:02.852Z,151
2022-11-14T13:45:02.301Z,133
2022-11-14T14:00:02.729Z,109
2022-11-14T14:15:03.162Z,86
2022-11-14T14:30:02.648Z,64
2022-11-14T14:45:03.064Z,42
2022-11-14T15:00:02.657Z,19
2022-11-14T15:15:02.934Z,5
2022-11-14T15:30:02.373Z,0
2022-11-14T15:45:02.794Z,0
2022-11-14T16:00:03.312Z,0
2022-11-14T16:15:02.699Z,0
2022-11-14T16:30:03.133Z,0
2022-11-14T16:45:02.763Z,0
2022-11-14T17:00:03.045Z,0
2022-11-14T17:15:02.422Z,0
2022-11-14T17:30:02.864Z,0
2022-11-14T17:45:02.326Z,0
2022-11-14T18:00:02.697Z,0
2022-11-14T18:15:03.167Z,0
2022-11-14T18:30:13.789Z,0
2022-11-14T19:00:02.684Z,0
2022-11-14T19:15:02.942Z,0
2022-11-14T19:30:02.353Z,0
2022-11-14T19:45:02.778Z,0
2022-11-14T20:00:03.230Z,0
2022-11-14T20:15:02.723Z,0
2022-11-14T20:30:03.110Z,0
2022-11-14T20:45:02.726Z,0
2022-11-14T21:00:03.005Z,0
2022-11-14T21:15:02.433Z,0
2022-11-14T21:30:02.873Z,0
2022-11-14T21:45:02.290Z,0
2022-11-14T22:00:02.764Z,0
2022-11-14T22:15:03.187Z,0
2022-11-14T22:30:02.757Z,0
2022-11-14T22:45:03.070Z,0
2022-11-14T23:00:02.504Z,0
2022-11-14T23:15:02.935Z,0
2022-11-14T23:30:02.357Z,0
2022-11-14T23:45:02.826Z,0
